createdAt,value
2023-04-23T00:01:35.153Z,10.17
2023-04-23T00:04:24.004Z,10.16
2023-04-23T00:07:02.853Z,10.16
2023-04-23T00:10:03.748Z,10.17
2023-04-23T00:13:12.145Z,10.16
2023-04-23T00:16:20.562Z,10.17
2023-04-23T00:19:27.894Z,10.19
2023-04-23T00:22:29.194Z,10.20
2023-04-23T00:25:37.515Z,10.20
2023-04-23T00:28:45.824Z,10.21
2023-04-23T00:31:49.847Z,10.22
2023-04-23T00:34:38.496Z,10.22
2023-04-23T00:37:46.897Z,10.24
2023-04-23T00:40:55.116Z,10.27
2023-04-23T00:43:54.156Z,10.28
2023-04-23T00:47:02.451Z,10.28
2023-04-23T00:50:10.912Z,10.29
2023-04-23T00:53:19.328Z,10.30
2023-04-23T00:56:27.857Z,10.31
2023-04-23T00:59:25.008Z,10.34
2023-04-23T01:02:33.410Z,10.38
2023-04-23T01:05:42.135Z,10.40
2023-04-23T01:08:49.312Z,10.42
2023-04-23T01:11:58.996Z,10.44
2023-04-23T01:15:12.155Z,10.44
2023-04-23T01:18:10.469Z,10.45
2023-04-23T01:21:18.823Z,10.45
2023-04-23T01:24:27.051Z,10.45
2023-04-23T01:27:26.319Z,10.45
2023-04-23T01:30:29.458Z,10.43
2023-04-23T01:33:37.978Z,10.42
2023-04-23T01:36:46.430Z,10.45
2023-04-23T01:39:54.730Z,10.46
2023-04-23T01:42:56.296Z,10.46
2023-04-23T01:46:04.912Z,10.49
2023-04-23T01:49:14.747Z,10.51
2023-04-23T01:52:24.352Z,10.53
2023-04-23T01:55:23.725Z,10.55
2023-04-23T01:58:32.164Z,10.58
2023-04-23T02:01:40.523Z,10.60
2023-04-23T02:04:55.027Z,10.63
2023-04-23T02:08:04.240Z,10.63
2023-04-23T02:11:12.514Z,10.64
2023-04-23T02:14:13.613Z,10.65
2023-04-23T02:17:21.926Z,10.65
2023-04-23T02:20:30.284Z,10.66
2023-04-23T02:23:37.056Z,10.65
2023-04-23T02:26:45.399Z,10.66
2023-04-23T02:29:53.870Z,10.66
2023-04-23T02:33:03.886Z,10.68
2023-04-23T02:36:12.261Z,10.68
2023-04-23T02:39:20.353Z,10.68
2023-04-23T02:42:11.849Z,10.69
2023-04-23T02:45:11.767Z,10.69
2023-04-23T02:48:20.137Z,10.70
2023-04-23T02:54:34.794Z,10.72
2023-04-23T02:57:25.554Z,10.72
2023-04-23T03:00:47.108Z,10.70
2023-04-23T03:04:19.488Z,10.68
2023-04-23T03:07:28.208Z,10.66
2023-04-23T03:10:16.796Z,10.65
2023-04-23T03:13:25.101Z,10.65
2023-04-23T03:16:33.914Z,10.65
2023-04-23T03:19:25.647Z,10.65
2023-04-23T03:22:23.115Z,10.65
2023-04-23T03:25:23.833Z,10.64
2023-04-23T03:28:32.303Z,10.64
2023-04-23T03:31:40.827Z,10.63
2023-04-23T03:34:49.307Z,10.62
2023-04-23T03:37:57.589Z,10.59
2023-04-23T03:41:06.113Z,10.58
2023-04-23T03:44:14.474Z,10.57
2023-04-23T03:47:22.897Z,10.57
2023-04-23T03:50:31.304Z,10.57
2023-04-23T03:53:40.043Z,10.57
2023-04-23T03:56:47.140Z,10.57
2023-04-23T03:59:55.862Z,10.58
2023-04-23T04:06:17.944Z,10.56
2023-04-23T04:09:26.988Z,10.56
2023-04-23T04:12:45.669Z,10.55
2023-04-23T04:15:51.183Z,10.54
2023-04-23T04:21:52.787Z,10.53
2023-04-23T04:25:01.125Z,10.54
2023-04-23T04:28:02.489Z,10.53
2023-04-23T04:31:12.032Z,10.53
2023-04-23T04:34:20.491Z,10.54
2023-04-23T04:37:12.631Z,10.55
2023-04-23T04:40:11.072Z,10.56
2023-04-23T04:43:19.352Z,10.57
2023-04-23T04:46:27.764Z,10.56
2023-04-23T04:49:37.969Z,10.55
2023-04-23T04:52:46.572Z,10.54
2023-04-23T04:55:17.915Z,10.50
2023-04-23T04:58:26.190Z,10.48
2023-04-23T05:01:35.203Z,10.45
2023-04-23T05:04:35.122Z,10.46
2023-04-23T05:07:43.395Z,10.46
2023-04-23T05:10:51.521Z,10.46
2023-04-23T05:14:00.031Z,10.44
2023-04-23T05:16:58.609Z,10.44
2023-04-23T05:19:57.034Z,10.44
2023-04-23T05:23:05.428Z,10.46
2023-04-23T05:26:07.385Z,10.46
2023-04-23T05:29:15.680Z,10.46
2023-04-23T05:32:23.220Z,10.47
2023-04-23T05:42:58.709Z,10.46
2023-04-23T05:45:59.965Z,10.47
2023-04-23T05:49:08.242Z,10.50
2023-04-23T05:52:16.656Z,10.53
2023-04-23T05:55:24.939Z,10.56
2023-04-23T06:02:11.876Z,10.66
2023-04-23T06:05:20.887Z,10.71
2023-04-23T06:08:29.508Z,10.77
2023-04-23T06:11:37.855Z,10.80
2023-04-23T06:18:18.991Z,10.83
2023-04-23T06:21:35.515Z,10.84
2023-04-23T06:24:44.170Z,10.91
2023-04-23T06:27:50.038Z,10.96
2023-04-23T06:30:58.454Z,10.99
2023-04-23T06:34:06.892Z,11.02
2023-04-23T06:37:15.198Z,11.07
2023-04-23T06:40:23.651Z,11.12
2023-04-23T06:50:44.609Z,11.72
2023-04-23T06:57:22.206Z,12.38
2023-04-23T06:59:56.372Z,12.43
2023-04-23T07:02:34.917Z,12.42
2023-04-23T07:05:29.728Z,12.48
2023-04-23T07:08:36.424Z,12.73
2023-04-23T07:11:13.352Z,12.99
2023-04-23T07:13:55.038Z,13.11
2023-04-23T07:16:48.920Z,13.17
2023-04-23T07:19:53.956Z,13.04
2023-04-23T07:22:54.752Z,12.95
2023-04-23T07:26:08.244Z,12.93
2023-04-23T07:29:16.756Z,12.92
2023-04-23T07:32:25.617Z,12.94
2023-04-23T07:35:35.056Z,13.46
2023-04-23T07:38:33.985Z,13.81
2023-04-23T07:41:02.452Z,13.94
2023-04-23T07:43:39.294Z,14.00
2023-04-23T07:46:49.518Z,14.07
2023-04-23T07:49:59.570Z,14.10
2023-04-23T07:53:07.902Z,14.15
2023-04-23T07:56:25.333Z,14.45
2023-04-23T07:59:37.318Z,14.77
2023-04-23T08:02:08.797Z,14.82
2023-04-23T08:04:39.730Z,14.91
2023-04-23T08:11:08.340Z,15.19
2023-04-23T08:14:24.771Z,15.36
2023-04-23T08:16:55.603Z,15.54
2023-04-23T08:20:04.096Z,15.71
2023-04-23T08:22:50.868Z,15.95
2023-04-23T08:25:59.750Z,15.98
2023-04-23T08:28:39.675Z,15.84
2023-04-23T08:31:54.411Z,15.61
2023-04-23T08:35:10.890Z,15.40
2023-04-23T08:37:54.068Z,15.16
2023-04-23T08:40:52.890Z,14.92
2023-04-23T08:44:11.747Z,14.88
2023-04-23T08:47:16.637Z,15.05
2023-04-23T08:50:25.306Z,15.18
2023-04-23T08:53:11.145Z,15.31
2023-04-23T08:56:20.069Z,15.27
2023-04-23T08:59:08.188Z,15.11
2023-04-23T09:01:36.166Z,15.05
2023-04-23T09:04:43.358Z,14.97
2023-04-23T09:07:43.285Z,14.90
2023-04-23T09:11:03.991Z,14.96
2023-04-23T09:14:12.427Z,15.02
2023-04-23T09:17:21.082Z,14.97
2023-04-23T09:20:12.314Z,14.95
2023-04-23T09:23:19.904Z,15.00
2023-04-23T09:29:48.579Z,15.20
2023-04-23T09:32:56.885Z,15.28
2023-04-23T09:36:05.369Z,15.30
2023-04-23T09:38:43.114Z,15.30
2023-04-23T09:42:09.492Z,15.24
2023-04-23T09:45:09.568Z,15.37
2023-04-23T09:48:20.704Z,15.47
2023-04-23T09:55:11.687Z,15.62
2023-04-23T09:58:22.824Z,15.80
2023-04-23T10:01:31.411Z,16.20
2023-04-23T10:04:13.300Z,16.54
2023-04-23T10:10:00.386Z,16.52
2023-04-23T10:13:06.108Z,16.57
2023-04-23T10:16:22.461Z,16.77
2023-04-23T10:19:15.671Z,16.92
2023-04-23T10:22:27.084Z,16.82
2023-04-23T10:25:20.634Z,16.53
2023-04-23T10:28:29.085Z,16.38
2023-04-23T10:31:37.528Z,16.38
2023-04-23T10:34:29.358Z,16.54
2023-04-23T10:37:21.145Z,16.67
2023-04-23T10:40:29.405Z,16.81
2023-04-23T10:43:36.593Z,16.85
2023-04-23T10:46:39.426Z,16.86
2023-04-23T10:53:42.080Z,16.93
2023-04-23T10:56:52.419Z,17.10
2023-04-23T11:00:00.756Z,17.19
2023-04-23T11:03:11.337Z,17.30
2023-04-23T11:06:20.096Z,17.63
2023-04-23T11:09:31.716Z,17.77
2023-04-23T11:12:45.929Z,17.75
2023-04-23T11:15:57.274Z,17.91
2023-04-23T11:18:54.875Z,17.89
2023-04-23T11:22:03.321Z,17.69
2023-04-23T11:25:10.771Z,17.49
2023-04-23T11:28:19.265Z,17.37
2023-04-23T11:30:51.373Z,17.27
2023-04-23T11:33:48.218Z,17.30
2023-04-23T11:36:52.627Z,17.26
2023-04-23T11:40:00.950Z,17.20
2023-04-23T11:43:00.307Z,17.24
2023-04-23T11:46:08.810Z,17.52
2023-04-23T11:49:17.521Z,17.82
2023-04-23T11:52:26.049Z,18.08
2023-04-23T11:55:19.068Z,18.08
2023-04-23T11:58:10.440Z,18.30
2023-04-23T12:01:21.861Z,18.61
2023-04-23T12:04:21.397Z,18.59
2023-04-23T12:07:30.371Z,18.37
2023-04-23T12:10:06.321Z,17.97
2023-04-23T12:13:17.877Z,17.70
2023-04-23T12:16:06.784Z,17.45
2023-04-23T12:19:16.103Z,17.19
2023-04-23T12:22:33.476Z,16.93
2023-04-23T12:25:23.008Z,16.88
2023-04-23T12:28:59.952Z,16.94
2023-04-23T12:31:51.015Z,17.02
2023-04-23T12:34:54.206Z,17.14
2023-04-23T12:38:07.432Z,17.29
2023-04-23T12:41:16.181Z,17.56
2023-04-23T12:44:25.214Z,17.90
2023-04-23T12:47:36.985Z,18.20
2023-04-23T12:50:31.384Z,18.41
2023-04-23T12:53:44.781Z,18.67
2023-04-23T12:56:22.767Z,18.69
2023-04-23T12:59:31.672Z,18.50
2023-04-23T13:02:40.268Z,18.23
2023-04-23T13:05:51.663Z,17.82
2023-04-23T13:08:23.034Z,17.62
2023-04-23T13:11:31.681Z,17.57
2023-04-23T13:14:32.974Z,17.45
2023-04-23T13:17:30.540Z,17.31
2023-04-23T13:20:29.435Z,17.20
2023-04-23T13:23:39.647Z,17.11
2023-04-23T13:26:51.617Z,16.99
2023-04-23T13:30:05.757Z,16.97
2023-04-23T13:57:57.783Z,17.01
2023-04-23T14:01:45.604Z,16.91
2023-04-23T14:04:53.565Z,16.51
2023-04-23T14:07:43.949Z,16.17
2023-04-23T14:10:52.788Z,16.01
2023-04-23T14:14:24.378Z,15.82
2023-04-23T14:17:33.117Z,15.69
2023-04-23T14:20:42.912Z,15.52
2023-04-23T14:23:50.826Z,15.36
2023-04-23T14:26:52.569Z,15.33
2023-04-23T14:30:03.165Z,15.29
2023-04-23T14:33:13.506Z,15.20
2023-04-23T14:40:30.756Z,15.23
2023-04-23T14:43:40.795Z,15.31
2023-04-23T14:46:50.156Z,15.48
2023-04-23T14:49:48.133Z,15.64
2023-04-23T14:52:39.464Z,15.69
2023-04-23T14:55:52.108Z,15.75
2023-04-23T14:59:01.559Z,15.84
2023-04-23T15:01:58.027Z,15.99
2023-04-23T15:05:16.315Z,15.99
2023-04-23T15:08:24.860Z,15.97
2023-04-23T15:11:36.425Z,15.94
2023-04-23T15:22:49.058Z,16.82
2023-04-23T15:25:57.940Z,16.35
2023-04-23T15:29:03.763Z,15.89
2023-04-23T15:32:01.589Z,15.49
2023-04-23T15:35:34.546Z,15.06
2023-04-23T15:38:47.720Z,14.66
2023-04-23T15:41:49.046Z,14.41
2023-04-23T15:44:42.545Z,14.33
2023-04-23T15:47:24.063Z,14.32
2023-04-23T15:50:24.620Z,14.27
2023-04-23T15:52:53.136Z,14.20
2023-04-23T15:55:35.848Z,14.14
2023-04-23T15:58:44.599Z,14.10
2023-04-23T16:01:42.362Z,14.08
2023-04-23T16:04:31.505Z,13.99
2023-04-23T16:07:34.375Z,13.91
2023-04-23T16:10:34.255Z,13.86
2023-04-23T16:13:39.321Z,13.88
2023-04-23T16:16:34.726Z,13.95
2023-04-23T16:19:35.341Z,13.98
2023-04-23T16:22:20.947Z,13.95
2023-04-23T16:25:21.693Z,13.89
2023-04-23T16:28:04.465Z,13.87
2023-04-23T16:35:08.453Z,13.99
2023-04-23T16:38:20.259Z,14.08
2023-04-23T16:40:51.649Z,14.08
2023-04-23T17:03:16.423Z,13.62
2023-04-23T17:06:20.057Z,13.63
2023-04-23T17:09:10.391Z,13.58
2023-04-23T17:12:19.486Z,13.56
2023-04-23T17:19:07.205Z,13.37
2023-04-23T17:25:26.018Z,13.16
2023-04-23T17:28:34.948Z,13.00
2023-04-23T17:31:53.013Z,12.79
2023-04-23T17:35:06.499Z,12.60
2023-04-23T17:38:23.348Z,12.42
2023-04-23T17:41:24.849Z,12.28
2023-04-23T17:59:51.680Z,11.77
2023-04-23T18:09:03.025Z,11.85
2023-04-23T18:18:12.757Z,11.21
2023-04-23T18:21:16.727Z,11.12
2023-04-23T18:24:11.721Z,11.02
2023-04-23T18:27:04.788Z,10.98
2023-04-23T18:29:58.865Z,10.93
2023-04-23T18:32:44.460Z,10.88
2023-04-23T18:35:55.766Z,10.84
2023-04-23T18:38:43.621Z,10.74
2023-04-23T18:41:54.235Z,10.67
2023-04-23T18:44:35.162Z,10.58
2023-04-23T18:47:25.072Z,10.51
2023-04-23T18:50:38.081Z,10.43
2023-04-23T18:57:40.563Z,10.28
2023-04-23T19:19:50.235Z,9.96
2023-04-23T19:22:53.868Z,9.95
2023-04-23T19:25:24.837Z,9.97
2023-04-23T19:29:06.473Z,9.97
2023-04-23T20:27:38.869Z,9.78
2023-04-23T20:38:41.439Z,9.60
2023-04-23T20:41:50.331Z,9.55
2023-04-23T20:44:53.260Z,9.48
2023-04-23T20:47:57.698Z,9.36
2023-04-23T20:50:59.231Z,9.24
2023-04-23T20:53:49.827Z,9.15
2023-04-23T20:56:28.913Z,9.07
2023-04-23T20:59:29.594Z,9.02
2023-04-23T21:02:38.241Z,8.96
2023-04-23T21:05:36.080Z,8.90
2023-04-23T21:08:14.698Z,8.87
2023-04-23T21:11:13.246Z,8.84
2023-04-23T21:14:15.173Z,8.80
2023-04-23T21:17:25.297Z,8.76
2023-04-23T21:20:45.575Z,8.74
2023-04-23T21:23:53.230Z,8.74
2023-04-23T21:27:01.987Z,8.76
2023-04-23T21:30:09.284Z,8.78
2023-04-23T21:32:53.191Z,8.80
2023-04-23T21:36:04.760Z,8.82
2023-04-23T21:42:10.902Z,8.82
2023-04-23T21:45:19.735Z,8.82
2023-04-23T21:48:10.444Z,8.80
2023-04-23T21:51:11.979Z,8.80
2023-04-23T21:54:10.745Z,8.79
2023-04-23T21:56:59.081Z,8.79
2023-04-23T22:00:01.731Z,8.81
2023-04-23T22:18:10.718Z,8.85
2023-04-23T22:21:06.921Z,8.83
2023-04-23T22:24:15.702Z,8.80
2023-04-23T22:30:40.733Z,8.83
2023-04-23T22:36:38.862Z,8.88
2023-04-23T22:40:34.908Z,8.89
2023-04-23T22:43:58.773Z,8.92
2023-04-23T22:54:42.824Z,8.88
2023-04-23T22:58:30.684Z,8.86
2023-04-23T23:01:57.973Z,8.84
2023-04-23T23:04:47.174Z,8.82
2023-04-23T23:15:54.691Z,8.68
2023-04-23T23:18:23.943Z,8.65
2023-04-23T23:21:45.136Z,8.61
2023-04-23T23:25:06.320Z,8.55
2023-04-23T23:28:14.815Z,8.51
2023-04-23T23:31:23.788Z,8.50
2023-04-23T23:34:15.098Z,8.49
2023-04-23T23:37:24.799Z,8.49
2023-04-23T23:52:30.956Z,8.51
2023-04-23T23:55:50.999Z,8.51
